Danville, GA

10:34 PM EST on February 05, 2016 (GMT -0500)
Evergreen Road | | Change Station
CLOSE
Current Station
Personal Weather Station
Location: Dublin, GA
Elevation: 354 ft
Nearby Weather Stations
Active Advisory: Flood Warning

Elev 354 ft 32.64 °N, 83.01 °W | Updated 2 seconds ago

Clear
Clear
33.8 °F
Feels Like 34 °F
N
0.0
Wind Variable Wind from NNE
Gusts 0.0 mph

Today
High -- | Low -- °F
--% Chance of Precip.
Yesterday
High -- | Low -- °F
Precip. -- in
Pressure 30.39 in
Visibility 10.0 miles
Clouds Clear
Windchill 34 °F
Dew Point 26 °F
Humidity 73%
Rainfall 0.00 in
Snow Depth Not available.
7:25 AM 6:09 PM
Waning Crescent, 8% visible
METAR KWRB 060258Z AUTO 34002KT 10SM CLR 04/M02 A3037 RMK AO2 SLP289 T00381023 52006
Pressure 30.39 in
Visibility 10.0 miles
Clouds Clear
Windchill 34 °F
Dew Point 26 °F
Humidity 73%
Rainfall 0.00 in
Snow Depth Not available.
7:25 AM 6:09 PM
Waning Crescent, 8% visible
METAR KWRB 060258Z AUTO 34002KT 10SM CLR 04/M02 A3037 RMK AO2 SLP289 T00381023 52006

10-Day Weather Forecast

Almanac

Astronomy

Feb. 05, 2016 Rise Set
Actual Time
Civil Twilight
Nautical Twilight
Astronomical Twilight
Moon
Length of Visible Light
Length of Day
Tomorrow will be .
, % of the Moon is Illuminated

Today's Extremes

State Highs State Lows

Community

WunderPhotos

Upload Photos

1,890,919 photos uploaded!

WunderBlog® & News

Nearby

Air Quality

  Air Quality AQ Index Pollutant
Not available.

Snow Depth

Station Depth Elevation

Earthquake Activity

City Distance Mag. Time & Date
Minimum magnitude displayed is 2.5.

Coastal Water Temperatures

Place Temperature

Stations

Nearby Weather Stations

Station Location Temp. Windchill Dew Point Humidity Wind Precip. Elev Updated Type
                   

Watches & Warnings

Flood Warning
Issued: 10:12 PM EST Feb. 5, 2016 – National Weather Service

... Flood Warning extended until late Saturday night... the Flood
Warning continues for
the Ocmulgee River near Macon.
* Until late Saturday night.
* At 10 PM Friday the stage was 18.9 feet... and falling.
* Minor flooding will continue.
* Flood stage is 18 feet.
* The river will continue rising to near 19 feet by after midnight
tomorrow. The river will fall below flood stage tomorrow late
evening.
* At 19 feet... minor flooding continues. The Macon Greenway
Ocmulgee heritage trail will begin to flood in areas just north of
the Martin Luther King Boulevard bridge. The public should not use
this portion of the trail. In addition... the lowest sections of the
Charles Jones Gateway Park will flood. Portions of agricultural
lands well downstream will be under two feet of water.



Lat... Lon 3290 8372 3293 8367 3282 8356 3266 8353
      3263 8359 3274 8363